sensor_id;sensor_type;location;lat;lon;timestamp;pressure;altitude;pressure_sealevel;temperature;humidity
72116;BME280;59991;52.140;5.428;2023-11-21T00:00:13;101069.69;;;6.50;100.00
72116;BME280;59991;52.140;5.428;2023-11-21T00:00:46;101061.91;;;6.48;100.00
72116;BME280;59991;52.140;5.428;2023-11-21T00:01:17;101064.63;;;6.48;100.00
72116;BME280;59991;52.140;5.428;2023-11-21T00:01:49;101067.34;;;6.48;100.00
72116;BME280;59991;52.140;5.428;2023-11-21T00:02:21;101060.34;;;6.47;100.00
72116;BME280;59991;52.140;5.428;2023-11-21T00:02:53;101064.19;;;6.46;100.00
72116;BME280;59991;52.140;5.428;2023-11-21T00:03:24;101061.47;;;6.46;100.00
72116;BME280;59991;52.140;5.428;2023-11-21T00:03:56;101073.09;;;6.47;100.00
72116;BME280;59991;52.140;5.428;2023-11-21T00:04:27;101071.16;;;6.47;100.00
72116;BME280;59991;52.140;5.428;2023-11-21T00:04:59;101065.31;;;6.45;100.00
72116;BME280;59991;52.140;5.428;2023-11-21T00:05:30;101067.22;;;6.45;100.00
72116;BME280;59991;52.140;5.428;2023-11-21T00:06:21;101076.13;;;6.45;100.00
72116;BME280;59991;52.140;5.428;2023-11-21T00:07:43;101072.63;;;6.45;100.00
72116;BME280;59991;52.140;5.428;2023-11-21T00:08:15;101079.19;;;6.44;100.00
72116;BME280;59991;52.140;5.428;2023-11-21T00:08:46;101070.28;;;6.43;100.00
72116;BME280;59991;52.140;5.428;2023-11-21T00:09:18;101070.28;;;6.43;100.00
72116;BME280;59991;52.140;5.428;2023-11-21T00:09:50;101078.41;;;6.43;100.00
72116;BME280;59991;52.140;5.428;2023-11-21T00:10:22;101070.63;;;6.42;100.00
72116;BME280;59991;52.140;5.428;2023-11-21T00:10:54;101081.44;;;6.42;100.00
72116;BME280;59991;52.140;5.428;2023-11-21T00:11:26;101075.25;;;6.41;100.00
72116;BME280;59991;52.140;5.428;2023-11-21T00:11:57;101077.94;;;6.41;100.00
72116;BME280;59991;52.140;5.428;2023-11-21T00:12:31;101078.75;;;6.42;100.00
72116;BME280;59991;52.140;5.428;2023-11-21T00:13:02;101076.03;;;6.42;100.00
72116;BME280;59991;52.140;5.428;2023-11-21T00:13:34;101076.03;;;6.42;100.00
72116;BME280;59991;52.140;5.428;2023-11-21T00:14:06;101086.06;;;6.41;100.00
72116;BME280;59991;52.140;5.428;2023-11-21T00:14:37;101079.88;;;6.41;100.00
72116;BME280;59991;52.140;5.428;2023-11-21T00:15:10;101081.44;;;6.42;100.00
72116;BME280;59991;52.140;5.428;2023-11-21T00:15:44;101080.31;;;6.43;100.00
72116;BME280;59991;52.140;5.428;2023-11-21T00:16:16;101080.31;;;6.43;100.00
72116;BME280;59991;52.140;5.428;2023-11-21T00:16:47;101074.91;;;6.43;100.00
72116;BME280;59991;52.140;5.428;2023-11-21T00:17:19;101081.09;;;6.43;100.00
72116;BME280;59991;52.140;5.428;2023-11-21T00:17:50;101075.69;;;6.43;100.00
72116;BME280;59991;52.140;5.428;2023-11-21T00:18:22;101077.59;;;6.43;100.00
72116;BME280;59991;52.140;5.428;2023-11-21T00:18:53;101079.53;;;6.42;100.00
72116;BME280;59991;52.140;5.428;2023-11-21T00:19:25;101075.25;;;6.41;100.00
72116;BME280;59991;52.140;5.428;2023-11-21T00:19:57;101076.03;;;6.42;100.00
72116;BME280;59991;52.140;5.428;2023-11-21T00:20:28;101074.44;;;6.41;100.00
72116;BME280;59991;52.140;5.428;2023-11-21T00:21:00;101077.94;;;6.41;100.00
72116;BME280;59991;52.140;5.428;2023-11-21T00:21:31;101079.88;;;6.41;100.00
72116;BME280;59991;52.140;5.428;2023-11-21T00:22:03;101079.88;;;6.41;100.00
72116;BME280;59991;52.140;5.428;2023-11-21T00:22:35;101081.00;;;6.40;100.00
72116;BME280;59991;52.140;5.428;2023-11-21T00:23:07;101081.44;;;6.42;100.00
72116;BME280;59991;52.140;5.428;2023-11-21T00:23:39;101081.78;;;6.40;100.00
72116;BME280;59991;52.140;5.428;2023-11-21T00:24:11;101079.41;;;6.39;100.00
72116;BME280;59991;52.140;5.428;2023-11-21T00:26:11;101078.75;;;6.42;100.00
72116;BME280;59991;52.140;5.428;2023-11-21T00:26:43;101079.88;;;6.41;100.00
72116;BME280;59991;52.140;5.428;2023-11-21T00:27:14;101079.88;;;6.41;100.00
72116;BME280;59991;52.140;5.428;2023-11-21T00:27:46;101083.72;;;6.40;100.00
72116;BME280;59991;52.140;5.428;2023-11-21T00:28:17;101089.13;;;6.40;100.00
72116;BME280;59991;52.140;5.428;2023-11-21T00:28:49;101082.13;;;6.39;100.00
72116;BME280;59991;52.140;5.428;2023-11-21T00:29:21;101087.53;;;6.39;100.00
72116;BME280;59991;52.140;5.428;2023-11-21T00:29:53;101082.13;;;6.39;100.00
72116;BME280;59991;52.140;5.428;2023-11-21T00:30:24;101086.75;;;6.38;100.00
72116;BME280;59991;52.140;5.428;2023-11-21T00:31:46;101085.63;;;6.39;100.00
72116;BME280;59991;52.140;5.428;2023-11-21T00:32:17;101094.88;;;6.38;100.00
72116;BME280;59991;52.140;5.428;2023-11-21T00:32:49;101089.81;;;6.37;100.00
72116;BME280;59991;52.140;5.428;2023-11-21T00:33:21;101089.81;;;6.37;100.00
72116;BME280;59991;52.140;5.428;2023-11-21T00:33:52;101084.72;;;6.35;100.00
72116;BME280;59991;52.140;5.428;2023-11-21T00:34:25;101094.81;;;6.35;100.00
72116;BME280;59991;52.140;5.428;2023-11-21T00:34:56;101095.94;;;6.34;100.00
72116;BME280;59991;52.140;5.428;2023-11-21T00:35:28;101095.13;;;6.33;100.00
72116;BME280;59991;52.140;5.428;2023-11-21T00:35:59;101090.50;;;6.34;100.00
72116;BME280;59991;52.140;5.428;2023-11-21T00:36:31;101088.94;;;6.33;100.00
72116;BME280;59991;52.140;5.428;2023-11-21T00:37:03;101088.16;;;6.32;100.00
72116;BME280;59991;52.140;5.428;2023-11-21T00:37:52;101086.22;;;6.33;100.00
72116;BME280;59991;52.140;5.428;2023-11-21T00:38:24;101087.34;;;6.32;100.00
72116;BME280;59991;52.140;5.428;2023-11-21T00:38:56;101084.66;;;6.32;100.00
72116;BME280;59991;52.140;5.428;2023-11-21T00:39:27;101088.81;;;6.29;100.00
72116;BME280;59991;52.140;5.428;2023-11-21T00:39:58;101093.13;;;6.30;100.00
72116;BME280;59991;52.140;5.428;2023-11-21T00:40:30;101090.75;;;6.29;100.00
72116;BME280;59991;52.140;5.428;2023-11-21T00:41:02;101088.03;;;6.29;100.00
72116;BME280;59991;52.140;5.428;2023-11-21T00:41:34;101092.66;;;6.28;100.00
72116;BME280;59991;52.140;5.428;2023-11-21T00:42:23;101098.88;;;6.29;100.00
72116;BME280;59991;52.140;5.428;2023-11-21T00:42:54;101094.59;;;6.28;100.00
72116;BME280;59991;52.140;5.428;2023-11-21T00:43:28;101091.09;;;6.27;100.00
72116;BME280;59991;52.140;5.428;2023-11-21T00:44:00;101098.41;;;6.27;100.00
72116;BME280;59991;52.140;5.428;2023-11-21T00:44:32;101096.50;;;6.27;100.00
72116;BME280;59991;52.140;5.428;2023-11-21T00:45:06;101094.13;;;6.26;100.00
72116;BME280;59991;52.140;5.428;2023-11-21T00:45:37;101097.63;;;6.26;100.00
72116;BME280;59991;52.140;5.428;2023-11-21T00:46:09;101094.13;;;6.26;100.00
72116;BME280;59991;52.140;5.428;2023-11-21T00:46:41;101089.50;;;6.26;100.00
72116;BME280;59991;52.140;5.428;2023-11-21T00:47:13;101092.56;;;6.24;100.00
72116;BME280;59991;52.140;5.428;2023-11-21T00:47:44;101090.63;;;6.25;100.00
72116;BME280;59991;52.140;5.428;2023-11-21T00:48:16;101095.25;;;6.24;100.00
72116;BME280;59991;52.140;5.428;2023-11-21T00:48:48;101097.97;;;6.24;100.00
72116;BME280;59991;52.140;5.428;2023-11-21T00:49:19;101096.06;;;6.25;100.00
72116;BME280;59991;52.140;5.428;2023-11-21T00:49:52;101094.47;;;6.24;100.00
72116;BME280;59991;52.140;5.428;2023-11-21T00:50:24;101094.81;;;6.22;100.00
72116;BME280;59991;52.140;5.428;2023-11-21T00:50:55;101096.38;;;6.23;100.00
72116;BME280;59991;52.140;5.428;2023-11-21T00:51:27;101092.88;;;6.23;100.00
72116;BME280;59991;52.140;5.428;2023-11-21T00:52:16;101092.09;;;6.22;100.00
72116;BME280;59991;52.140;5.428;2023-11-21T00:52:48;101096.72;;;6.22;100.00
72116;BME280;59991;52.140;5.428;2023-11-21T00:53:19;101095.94;;;6.21;100.00
72116;BME280;59991;52.140;5.428;2023-11-21T00:53:51;101098.63;;;6.21;100.00
72116;BME280;59991;52.140;5.428;2023-11-21T00:54:22;101102.47;;;6.20;100.00
72116;BME280;59991;52.140;5.428;2023-11-21T00:54:54;101097.84;;;6.21;100.00
72116;BME280;59991;52.140;5.428;2023-11-21T00:55:26;101098.97;;;6.20;100.00
72116;BME280;59991;52.140;5.428;2023-11-21T00:56:49;101094.34;;;6.20;100.00
72116;BME280;59991;52.140;5.428;2023-11-21T00:57:21;101101.69;;;6.20;100.00
72116;BME280;59991;52.140;5.428;2023-11-21T00:57:52;101094.69;;;6.19;100.00
72116;BME280;59991;52.140;5.428;2023-11-21T00:58:24;101100.09;;;6.19;100.00
72116;BME280;59991;52.140;5.428;2023-11-21T00:58:56;101096.63;;;6.18;100.00
72116;BME280;59991;52.140;5.428;2023-11-21T00:59:27;101104.72;;;6.18;100.00
72116;BME280;59991;52.140;5.428;2023-11-21T00:59:59;101099.31;;;6.18;100.00
72116;BME280;59991;52.140;5.428;2023-11-21T01:00:31;101107.44;;;6.18;100.00
72116;BME280;59991;52.140;5.428;2023-11-21T01:01:02;101097.75;;;6.17;100.00
72116;BME280;59991;52.140;5.428;2023-11-21T01:01:34;101096.63;;;6.18;100.00
72116;BME280;59991;52.140;5.428;2023-11-21T01:02:06;101098.53;;;6.18;100.00
72116;BME280;59991;52.140;5.428;2023-11-21T01:02:41;101106.66;;;6.18;100.00
72116;BME280;59991;52.140;5.428;2023-11-21T01:03:13;101109.34;;;6.18;100.00
72116;BME280;59991;52.140;5.428;2023-11-21T01:03:47;101112.84;;;6.18;100.00
72116;BME280;59991;52.140;5.428;2023-11-21T01:04:19;101109.34;;;6.18;100.00
72116;BME280;59991;52.140;5.428;2023-11-21T01:04:50;101111.28;;;6.17;100.00
72116;BME280;59991;52.140;5.428;2023-11-21T01:05:22;101112.06;;;6.18;100.00
72116;BME280;59991;52.140;5.428;2023-11-21T01:05:53;101112.84;;;6.18;100.00
72116;BME280;59991;52.140;5.428;2023-11-21T01:06:25;101111.28;;;6.17;100.00
72116;BME280;59991;52.140;5.428;2023-11-21T01:06:56;101120.19;;;6.18;100.00
72116;BME280;59991;52.140;5.428;2023-11-21T01:07:28;101122.91;;;6.18;100.00
72116;BME280;59991;52.140;5.428;2023-11-21T01:07:59;101125.59;;;6.18;100.00
72116;BME280;59991;52.140;5.428;2023-11-21T01:08:31;101121.31;;;6.17;100.00
72116;BME280;59991;52.140;5.428;2023-11-21T01:09:02;101122.44;;;6.16;100.00
72116;BME280;59991;52.140;5.428;2023-11-21T01:09:39;101121.31;;;6.17;100.00
72116;BME280;59991;52.140;5.428;2023-11-21T01:10:10;101124.03;;;6.17;100.00
72116;BME280;59991;52.140;5.428;2023-11-21T01:10:42;101125.59;;;6.18;100.00
72116;BME280;59991;52.140;5.428;2023-11-21T01:11:14;101122.91;;;6.18;100.00
72116;BME280;59991;52.140;5.428;2023-11-21T01:11:46;101122.09;;;6.17;100.00
72116;BME280;59991;52.140;5.428;2023-11-21T01:12:17;101122.09;;;6.17;100.00
72116;BME280;59991;52.140;5.428;2023-11-21T01:12:49;101124.81;;;6.17;100.00
72116;BME280;59991;52.140;5.428;2023-11-21T01:13:21;101125.94;;;6.16;100.00
72116;BME280;59991;52.140;5.428;2023-11-21T01:13:52;101127.53;;;6.17;100.00
72116;BME280;59991;52.140;5.428;2023-11-21T01:14:24;101124.81;;;6.17;100.00
72116;BME280;59991;52.140;5.428;2023-11-21T01:14:58;101124.81;;;6.17;100.00
72116;BME280;59991;52.140;5.428;2023-11-21T01:15:31;101128.31;;;6.18;100.00
72116;BME280;59991;52.140;5.428;2023-11-21T01:16:03;101126.41;;;6.18;100.00
72116;BME280;59991;52.140;5.428;2023-11-21T01:16:35;101131.81;;;6.18;100.00
72116;BME280;59991;52.140;5.428;2023-11-21T01:17:06;101132.59;;;6.19;100.00
72116;BME280;59991;52.140;5.428;2023-11-21T01:17:38;101132.59;;;6.19;100.00
72116;BME280;59991;52.140;5.428;2023-11-21T01:18:11;101131.81;;;6.18;100.00
72116;BME280;59991;52.140;5.428;2023-11-21T01:18:42;101123.69;;;6.18;100.00
72116;BME280;59991;52.140;5.428;2023-11-21T01:19:14;101133.41;;;6.19;100.00
72116;BME280;59991;52.140;5.428;2023-11-21T01:19:46;101124.47;;;6.19;100.00
72116;BME280;59991;52.140;5.428;2023-11-21T01:20:18;101122.56;;;6.19;100.00
72116;BME280;59991;52.140;5.428;2023-11-21T01:20:49;101123.34;;;6.20;100.00
72116;BME280;59991;52.140;5.428;2023-11-21T01:21:21;101126.84;;;6.20;100.00
72116;BME280;59991;52.140;5.428;2023-11-21T01:22:44;101130.34;;;6.21;100.00
72116;BME280;59991;52.140;5.428;2023-11-21T01:23:16;101129.56;;;6.20;100.00
72116;BME280;59991;52.140;5.428;2023-11-21T01:23:47;101129.22;;;6.22;100.00
72116;BME280;59991;52.140;5.428;2023-11-21T01:24:18;101128.44;;;6.21;100.00
72116;BME280;59991;52.140;5.428;2023-11-21T01:24:50;101126.50;;;6.22;100.00
72116;BME280;59991;52.140;5.428;2023-11-21T01:25:22;101127.31;;;6.22;100.00
72116;BME280;59991;52.140;5.428;2023-11-21T01:25:56;101125.38;;;6.23;100.00
72116;BME280;59991;52.140;5.428;2023-11-21T01:26:27;101131.94;;;6.22;100.00
72116;BME280;59991;52.140;5.428;2023-11-21T01:26:59;101128.09;;;6.23;100.00
72116;BME280;59991;52.140;5.428;2023-11-21T01:27:30;101119.97;;;6.23;100.00
72116;BME280;59991;52.140;5.428;2023-11-21T01:28:02;101126.16;;;6.23;100.00
72116;BME280;59991;52.140;5.428;2023-11-21T01:28:34;101119.63;;;6.24;100.00
72116;BME280;59991;52.140;5.428;2023-11-21T01:29:05;101116.91;;;6.24;100.00
72116;BME280;59991;52.140;5.428;2023-11-21T01:29:37;101116.91;;;6.24;100.00
72116;BME280;59991;52.140;5.428;2023-11-21T01:30:08;101118.84;;;6.24;100.00
72116;BME280;59991;52.140;5.428;2023-11-21T01:30:58;101120.41;;;6.25;100.00
72116;BME280;59991;52.140;5.428;2023-11-21T01:31:30;101122.00;;;6.26;100.00
72116;BME280;59991;52.140;5.428;2023-11-21T01:32:02;101122.00;;;6.26;100.00
72116;BME280;59991;52.140;5.428;2023-11-21T01:32:35;101119.28;;;6.26;100.00
72116;BME280;59991;52.140;5.428;2023-11-21T01:33:07;101123.59;;;6.27;100.00
72116;BME280;59991;52.140;5.428;2023-11-21T01:33:40;101128.19;;;6.27;100.00
72116;BME280;59991;52.140;5.428;2023-11-21T01:34:11;101127.41;;;6.26;100.00
72116;BME280;59991;52.140;5.428;2023-11-21T01:34:43;101127.41;;;6.26;100.00
72116;BME280;59991;52.140;5.428;2023-11-21T01:35:15;101126.63;;;6.26;100.00
72116;BME280;59991;52.140;5.428;2023-11-21T01:36:36;101124.38;;;6.28;100.00
72116;BME280;59991;52.140;5.428;2023-11-21T01:37:08;101122.78;;;6.27;100.00
72116;BME280;59991;52.140;5.428;2023-11-21T01:37:40;101136.00;;;6.28;100.00
72116;BME280;59991;52.140;5.428;2023-11-21T01:38:12;101130.56;;;6.28;100.00
72116;BME280;59991;52.140;5.428;2023-11-21T01:39:02;101131.38;;;6.29;100.00
72116;BME280;59991;52.140;5.428;2023-11-21T01:39:35;101127.53;;;6.30;100.00
72116;BME280;59991;52.140;5.428;2023-11-21T01:40:10;101127.88;;;6.28;100.00
72116;BME280;59991;52.140;5.428;2023-11-21T01:40:45;101130.22;;;6.30;100.00
72116;BME280;59991;52.140;5.428;2023-11-21T01:41:16;101124.81;;;6.30;100.00
72116;BME280;59991;52.140;5.428;2023-11-21T01:41:49;101132.16;;;6.29;100.00
72116;BME280;59991;52.140;5.428;2023-11-21T01:42:21;101128.66;;;6.29;100.00
72116;BME280;59991;52.140;5.428;2023-11-21T01:43:43;101129.91;;;6.31;100.00
72116;BME280;59991;52.140;5.428;2023-11-21T01:44:14;101134.53;;;6.31;100.00
72116;BME280;59991;52.140;5.428;2023-11-21T01:44:46;101130.22;;;6.30;100.00
72116;BME280;59991;52.140;5.428;2023-11-21T01:45:18;101132.59;;;6.31;100.00
72116;BME280;59991;52.140;5.428;2023-11-21T01:45:49;101129.09;;;6.31;100.00
72116;BME280;59991;52.140;5.428;2023-11-21T01:46:21;101132.94;;;6.30;100.00
72116;BME280;59991;52.140;5.428;2023-11-21T01:46:53;101133.41;;;6.32;100.00
72116;BME280;59991;52.140;5.428;2023-11-21T01:47:25;101125.28;;;6.32;100.00
72116;BME280;59991;52.140;5.428;2023-11-21T01:47:57;101127.97;;;6.32;100.00
72116;BME280;59991;52.140;5.428;2023-11-21T01:48:29;101138.81;;;6.32;100.00
72116;BME280;59991;52.140;5.428;2023-11-21T01:49:01;101137.69;;;6.33;100.00
72116;BME280;59991;52.140;5.428;2023-11-21T01:49:33;101140.84;;;6.35;100.00
72116;BME280;59991;52.140;5.428;2023-11-21T01:50:07;101137.69;;;6.33;100.00
72116;BME280;59991;52.140;5.428;2023-11-21T01:50:39;101137.69;;;6.33;100.00
72116;BME280;59991;52.140;5.428;2023-11-21T01:51:10;101136.56;;;6.34;100.00
72116;BME280;59991;52.140;5.428;2023-11-21T01:51:43;101141.97;;;6.34;100.00
72116;BME280;59991;52.140;5.428;2023-11-21T01:52:15;101140.41;;;6.33;100.00
72116;BME280;59991;52.140;5.428;2023-11-21T01:52:47;101140.84;;;6.35;100.00
72116;BME280;59991;52.140;5.428;2023-11-21T01:53:19;101134.97;;;6.33;100.00
72116;BME280;59991;52.140;5.428;2023-11-21T01:53:51;101145.09;;;6.36;100.00
72116;BME280;59991;52.140;5.428;2023-11-21T01:54:24;101145.91;;;6.36;100.00
72116;BME280;59991;52.140;5.428;2023-11-21T01:54:57;101142.41;;;6.36;100.00
72116;BME280;59991;52.140;5.428;2023-11-21T01:55:30;101149.41;;;6.37;100.00
72116;BME280;59991;52.140;5.428;2023-11-21T01:56:01;101140.47;;;6.36;100.00
72116;BME280;59991;52.140;5.428;2023-11-21T01:56:34;101143.97;;;6.37;100.00
72116;BME280;59991;52.140;5.428;2023-11-21T01:57:06;101149.41;;;6.37;100.00
72116;BME280;59991;52.140;5.428;2023-11-21T01:57:38;101148.59;;;6.36;100.00
72116;BME280;59991;52.140;5.428;2023-11-21T01:58:10;101142.84;;;6.38;100.00
72116;BME280;59991;52.140;5.428;2023-11-21T01:58:44;101140.13;;;6.38;100.00
72116;BME280;59991;52.140;5.428;2023-11-21T02:00:10;101148.72;;;6.40;100.00
72116;BME280;59991;52.140;5.428;2023-11-21T02:00:48;101148.72;;;6.40;100.00
72116;BME280;59991;52.140;5.428;2023-11-21T02:01:22;101150.28;;;6.41;100.00
72116;BME280;59991;52.140;5.428;2023-11-21T02:01:53;101150.28;;;6.41;100.00
72116;BME280;59991;52.140;5.428;2023-11-21T02:02:27;101144.88;;;6.41;100.00
72116;BME280;59991;52.140;5.428;2023-11-21T02:02:59;101151.09;;;6.41;100.00
72116;BME280;59991;52.140;5.428;2023-11-21T02:03:31;101153.00;;;6.41;100.00
72116;BME280;59991;52.140;5.428;2023-11-21T02:04:03;101148.38;;;6.41;100.00
72116;BME280;59991;52.140;5.428;2023-11-21T02:04:35;101153.78;;;6.41;100.00
72116;BME280;59991;52.140;5.428;2023-11-21T02:05:08;101148.03;;;6.43;100.00
72116;BME280;59991;52.140;5.428;2023-11-21T02:05:40;101153.47;;;6.43;100.00
72116;BME280;59991;52.140;5.428;2023-11-21T02:06:11;101145.34;;;6.43;100.00
72116;BME280;59991;52.140;5.428;2023-11-21T02:06:43;101152.31;;;6.44;100.00
72116;BME280;59991;52.140;5.428;2023-11-21T02:07:14;101149.63;;;6.44;100.00
72116;BME280;59991;52.140;5.428;2023-11-21T02:07:46;101155.81;;;6.44;100.00
72116;BME280;59991;52.140;5.428;2023-11-21T02:08:20;101157.75;;;6.44;100.00
72116;BME280;59991;52.140;5.428;2023-11-21T02:08:51;101153.91;;;6.45;100.00
72116;BME280;59991;52.140;5.428;2023-11-21T02:09:25;101156.63;;;6.45;100.00
72116;BME280;59991;52.140;5.428;2023-11-21T02:09:57;101162.81;;;6.45;100.00
72116;BME280;59991;52.140;5.428;2023-11-21T02:10:28;101162.81;;;6.45;100.00
72116;BME280;59991;52.140;5.428;2023-11-21T02:11:00;101164.41;;;6.46;100.00
72116;BME280;59991;52.140;5.428;2023-11-21T02:11:33;101167.91;;;6.47;100.00
72116;BME280;59991;52.140;5.428;2023-11-21T02:12:06;101167.91;;;6.47;100.00
72116;BME280;59991;52.140;5.428;2023-11-21T02:12:38;101169.47;;;6.48;100.00
72116;BME280;59991;52.140;5.428;2023-11-21T02:13:10;101167.56;;;6.48;100.00
72116;BME280;59991;52.140;5.428;2023-11-21T02:13:42;101173.78;;;6.49;100.00
72116;BME280;59991;52.140;5.428;2023-11-21T02:14:14;101173.78;;;6.49;100.00
72116;BME280;59991;52.140;5.428;2023-11-21T02:14:46;101173.78;;;6.49;100.00
72116;BME280;59991;52.140;5.428;2023-11-21T02:15:18;101177.28;;;6.49;100.00
72116;BME280;59991;52.140;5.428;2023-11-21T02:15:52;101167.22;;;6.50;100.00
72116;BME280;59991;52.140;5.428;2023-11-21T02:16:25;101171.06;;;6.49;100.00
72116;BME280;59991;52.140;5.428;2023-11-21T02:16:58;101175.34;;;6.50;100.00
72116;BME280;59991;52.140;5.428;2023-11-21T02:17:30;101175.00;;;6.51;100.00
72116;BME280;59991;52.140;5.428;2023-11-21T02:18:01;101170.72;;;6.50;100.00
72116;BME280;59991;52.140;5.428;2023-11-21T02:18:35;101176.59;;;6.52;100.00
72116;BME280;59991;52.140;5.428;2023-11-21T02:19:10;101173.88;;;6.52;100.00
72116;BME280;59991;52.140;5.428;2023-11-21T02:19:42;101180.88;;;6.53;100.00
72116;BME280;59991;52.140;5.428;2023-11-21T02:20:14;101178.19;;;6.53;100.00
72116;BME280;59991;52.140;5.428;2023-11-21T02:20:46;101179.72;;;6.54;100.00
72116;BME280;59991;52.140;5.428;2023-11-21T02:21:18;101175.09;;;6.55;100.00
72116;BME280;59991;52.140;5.428;2023-11-21T02:22:08;101172.06;;;6.56;100.00
72116;BME280;59991;52.140;5.428;2023-11-21T02:22:42;101182.09;;;6.56;100.00
72116;BME280;59991;52.140;5.428;2023-11-21T02:23:14;101173.19;;;6.55;100.00
72116;BME280;59991;52.140;5.428;2023-11-21T02:23:46;101173.19;;;6.55;100.00
72116;BME280;59991;52.140;5.428;2023-11-21T02:24:21;101178.25;;;6.57;100.00
72116;BME280;59991;52.140;5.428;2023-11-21T02:24:53;101185.25;;;6.58;100.00
72116;BME280;59991;52.140;5.428;2023-11-21T02:25:32;101180.97;;;6.57;100.00
72116;BME280;59991;52.140;5.428;2023-11-21T02:26:04;101177.13;;;6.58;100.00
72116;BME280;59991;52.140;5.428;2023-11-21T02:26:55;101178.72;;;6.59;100.00
72116;BME280;59991;52.140;5.428;2023-11-21T02:27:27;101175.22;;;6.58;100.00
72116;BME280;59991;52.140;5.428;2023-11-21T02:28:00;101181.75;;;6.57;100.00
72116;BME280;59991;52.140;5.428;2023-11-21T02:28:32;101178.72;;;6.59;100.00
72116;BME280;59991;52.140;5.428;2023-11-21T02:29:04;101176.78;;;6.59;100.00
72116;BME280;59991;52.140;5.428;2023-11-21T02:29:54;101180.75;;;6.62;100.00
72116;BME280;59991;52.140;5.428;2023-11-21T02:30:26;101175.66;;;6.61;100.00
72116;BME280;59991;52.140;5.428;2023-11-21T02:31:03;101177.25;;;6.62;100.00
72116;BME280;59991;52.140;5.428;2023-11-21T02:31:36;101179.16;;;6.61;100.00
72116;BME280;59991;52.140;5.428;2023-11-21T02:32:08;101185.38;;;6.62;100.00
72116;BME280;59991;52.140;5.428;2023-11-21T02:32:42;101183.44;;;6.62;100.00
72116;BME280;59991;52.140;5.428;2023-11-21T02:33:19;101182.31;;;6.63;100.00
72116;BME280;59991;52.140;5.428;2023-11-21T02:33:51;101185.03;;;6.63;100.00
72116;BME280;59991;52.140;5.428;2023-11-21T02:34:24;101183.13;;;6.64;100.00
72116;BME280;59991;52.140;5.428;2023-11-21T02:34:58;101185.03;;;6.63;100.00
72116;BME280;59991;52.140;5.428;2023-11-21T02:35:32;101175.78;;;6.64;100.00
72116;BME280;59991;52.140;5.428;2023-11-21T02:36:04;101181.19;;;6.64;100.00
72116;BME280;59991;52.140;5.428;2023-11-21T02:36:36;101178.47;;;6.64;100.00
72116;BME280;59991;52.140;5.428;2023-11-21T02:37:08;101178.16;;;6.66;100.00
72116;BME280;59991;52.140;5.428;2023-11-21T02:37:40;101183.56;;;6.66;100.00
72116;BME280;59991;52.140;5.428;2023-11-21T02:38:12;101183.56;;;6.66;100.00
72116;BME280;59991;52.140;5.428;2023-11-21T02:38:43;101185.94;;;6.67;100.00
72116;BME280;59991;52.140;5.428;2023-11-21T02:39:15;101181.31;;;6.68;100.00
72116;BME280;59991;52.140;5.428;2023-11-21T02:40:40;101180.50;;;6.67;100.00
72116;BME280;59991;52.140;5.428;2023-11-21T02:41:12;101187.50;;;6.68;100.00
72116;BME280;59991;52.140;5.428;2023-11-21T02:41:44;101184.00;;;6.68;100.00
72116;BME280;59991;52.140;5.428;2023-11-21T02:42:15;101186.38;;;6.69;100.00
72116;BME280;59991;52.140;5.428;2023-11-21T02:42:47;101187.16;;;6.70;100.00
72116;BME280;59991;52.140;5.428;2023-11-21T02:43:19;101189.09;;;6.69;100.00
72116;BME280;59991;52.140;5.428;2023-11-21T02:43:50;101184.47;;;6.70;100.00
72116;BME280;59991;52.140;5.428;2023-11-21T02:44:22;101193.38;;;6.70;100.00
72116;BME280;59991;52.140;5.428;2023-11-21T02:44:53;101192.59;;;6.70;100.00
72116;BME280;59991;52.140;5.428;2023-11-21T02:45:24;101187.97;;;6.70;100.00
72116;BME280;59991;52.140;5.428;2023-11-21T02:45:56;101187.63;;;6.72;100.00
72116;BME280;59991;52.140;5.428;2023-11-21T02:46:28;101196.09;;;6.70;100.00
72116;BME280;59991;52.140;5.428;2023-11-21T02:46:59;101191.13;;;6.72;100.00
72116;BME280;59991;52.140;5.428;2023-11-21T02:47:31;101191.91;;;6.73;100.00
72116;BME280;59991;52.140;5.428;2023-11-21T02:48:03;101188.41;;;6.72;100.00
72116;BME280;59991;52.140;5.428;2023-11-21T02:48:35;101185.34;;;6.74;100.00
72116;BME280;59991;52.140;5.428;2023-11-21T02:49:07;101186.91;;;6.75;100.00
72116;BME280;59991;52.140;5.428;2023-11-21T02:49:41;101193.91;;;6.76;100.00
72116;BME280;59991;52.140;5.428;2023-11-21T02:50:13;101185.00;;;6.75;100.00
72116;BME280;59991;52.140;5.428;2023-11-21T02:50:44;101192.00;;;6.76;100.00
72116;BME280;59991;52.140;5.428;2023-11-21T02:51:16;101186.56;;;6.76;100.00
72116;BME280;59991;52.140;5.428;2023-11-21T02:51:47;101187.38;;;6.77;100.00
72116;BME280;59991;52.140;5.428;2023-11-21T02:52:19;101188.94;;;6.78;100.00
72116;BME280;59991;52.140;5.428;2023-11-21T02:52:50;101185.44;;;6.77;100.00
72116;BME280;59991;52.140;5.428;2023-11-21T02:53:22;101185.09;;;6.79;100.00
72116;BME280;59991;52.140;5.428;2023-11-21T02:53:56;101191.31;;;6.79;100.00
72116;BME280;59991;52.140;5.428;2023-11-21T02:54:32;101188.25;;;6.81;100.00
72116;BME280;59991;52.140;5.428;2023-11-21T02:55:08;101185.56;;;6.81;100.00
72116;BME280;59991;52.140;5.428;2023-11-21T02:55:39;101190.97;;;6.81;100.00
72116;BME280;59991;52.140;5.428;2023-11-21T02:56:11;101187.47;;;6.80;100.00
72116;BME280;59991;52.140;5.428;2023-11-21T02:56:42;101180.94;;;6.81;100.00
72116;BME280;59991;52.140;5.428;2023-11-21T02:57:14;101189.06;;;6.81;100.00
72116;BME280;59991;52.140;5.428;2023-11-21T02:57:45;101185.22;;;6.82;100.00
72116;BME280;59991;52.140;5.428;2023-11-21T02:58:17;101183.63;;;6.81;100.00
72116;BME280;59991;52.140;5.428;2023-11-21T02:58:48;101180.94;;;6.81;100.00